Time;durP1;ratioP1;P1;durP2;ratioP2;P2;SDS_P1;SDS_P2;PMS_P1;PMS_P2;Temp;Humidity;BMP_temperature;BMP_pressure;BME280_temperature;BME280_humidity;BME280_pressure;Samples;Min_cycle;Max_cycle;Signal;HPM_P1;HPM_P2
2022/02/25 00:01:50;;;;;;;31.90;15.30;;;;;;;-4.23;84.87;97793.13;109767;1251;70576;-64
2022/02/25 00:04:20;;;;;;;22.80;15.20;;;;;;;-4.31;85.40;97798.80;109791;1249;67696;-64
2022/02/25 00:06:49;;;;;;;21.20;13.70;;;;;;;-4.38;85.66;97790.52;109781;1252;70029;-63
2022/02/25 00:09:19;;;;;;;20.90;13.20;;;;;;;-4.42;85.14;97791.41;109646;1250;59789;-63
2022/02/25 00:11:48;;;;;;;21.80;12.40;;;;;;;-4.49;85.62;97788.73;109799;1250;59693;-61
2022/02/25 00:14:18;;;;;;;23.10;15.30;;;;;;;-4.51;85.74;97787.23;109811;1252;71593;-64
2022/02/25 00:16:49;;;;;;;22.30;13.70;;;;;;;-4.53;85.59;97787.58;109818;1250;68526;-62
2022/02/25 00:19:18;;;;;;;15.10;8.70;;;;;;;-4.52;85.90;97784.85;109746;1251;69252;-62
2022/02/25 00:21:48;;;;;;;15.40;10.30;;;;;;;-4.49;84.78;97784.15;109830;1250;60166;-62
2022/02/25 00:24:18;;;;;;;19.00;11.00;;;;;;;-4.42;83.74;97778.81;109755;1250;59699;-62
2022/02/25 00:26:48;;;;;;;22.00;12.60;;;;;;;-4.33;83.82;97775.00;109788;1250;71752;-61
2022/02/25 00:29:18;;;;;;;17.40;11.70;;;;;;;-4.26;84.10;97771.04;109827;1251;68840;-63
2022/02/25 00:31:50;;;;;;;18.70;10.50;;;;;;;-4.25;84.64;97770.51;109789;1250;69250;-66
2022/02/25 00:34:20;;;;;;;18.60;11.90;;;;;;;-4.21;84.04;97768.61;109741;1250;59697;-62
2022/02/25 00:36:50;;;;;;;19.60;11.80;;;;;;;-4.16;83.86;97769.09;109757;1251;59688;-61
2022/02/25 00:39:20;;;;;;;24.10;15.80;;;;;;;-4.13;84.00;97764.63;109737;1250;70547;-63
2022/02/25 00:41:51;;;;;;;20.40;10.80;;;;;;;-4.13;83.86;97765.81;109721;1250;67590;-62
2022/02/25 00:44:21;;;;;;;18.60;11.30;;;;;;;-4.10;83.70;97762.39;109760;1251;69248;-65
2022/02/25 00:46:53;;;;;;;21.30;11.90;;;;;;;-4.07;83.71;97757.42;109802;1251;59757;-62
2022/02/25 00:49:24;;;;;;;29.30;15.00;;;;;;;-4.13;83.58;97757.14;109810;1250;59701;-61
2022/02/25 00:51:54;;;;;;;32.30;17.60;;;;;;;-4.21;84.14;97754.83;109729;1250;71549;-63
2022/02/25 00:54:24;;;;;;;21.10;12.90;;;;;;;-4.24;85.05;97752.82;109767;1251;67668;-62
2022/02/25 00:56:55;;;;;;;17.70;10.00;;;;;;;-4.25;84.12;97750.09;109697;1251;69450;-61
2022/02/25 00:59:25;;;;;;;25.40;14.00;;;;;;;-4.25;83.70;97749.25;109748;1250;59783;-64
2022/02/25 01:01:57;;;;;;;22.60;14.10;;;;;;;-4.29;85.80;97747.75;109759;1251;59738;-62
2022/02/25 01:04:28;;;;;;;15.90;10.10;;;;;;;-4.28;85.82;97745.36;109668;1252;70588;-63
2022/02/25 01:06:59;;;;;;;20.60;12.60;;;;;;;-4.29;84.40;97743.84;109854;1250;68407;-62
2022/02/25 01:09:28;;;;;;;22.90;13.00;;;;;;;-4.32;84.06;97736.02;109793;1251;68452;-62
2022/02/25 01:12:00;;;;;;;16.70;11.00;;;;;;;-4.37;84.26;97734.37;109714;1251;59685;-63
2022/02/25 01:14:29;;;;;;;20.40;13.30;;;;;;;-4.43;84.31;97727.79;109875;1250;59700;-63
2022/02/25 01:17:01;;;;;;;25.30;13.20;;;;;;;-4.48;85.11;97726.30;109760;1251;71516;-64
2022/02/25 01:19:32;;;;;;;23.10;13.90;;;;;;;-4.53;86.35;97721.07;109849;1251;68613;-63
2022/02/25 01:22:02;;;;;;;18.40;12.30;;;;;;;-4.56;87.05;97719.23;109692;1252;68649;-63
2022/02/25 01:24:32;;;;;;;20.40;11.70;;;;;;;-4.57;87.33;97717.20;109818;1251;59709;-65
2022/02/25 01:27:05;;;;;;;23.90;13.00;;;;;;;-4.58;87.89;97720.41;109830;1250;59670;-64
2022/02/25 01:29:35;;;;;;;21.10;13.00;;;;;;;-4.59;87.79;97716.69;109844;1250;70613;-65
2022/02/25 01:32:05;;;;;;;24.30;13.30;;;;;;;-4.63;87.34;97716.20;109855;1250;68647;-63
2022/02/25 01:34:35;;;;;;;11.60;8.00;;;;;;;-4.65;86.63;97712.31;109705;1251;68699;-62
2022/02/25 01:37:06;;;;;;;12.10;9.40;;;;;;;-4.69;85.65;97708.25;109734;1250;59774;-62
2022/02/25 01:39:36;;;;;;;27.70;15.40;;;;;;;-4.76;85.50;97709.67;109831;1251;59675;-61
2022/02/25 01:42:07;;;;;;;27.00;15.00;;;;;;;-4.82;85.92;97703.77;109904;1251;70999;-61
2022/02/25 01:44:41;;;;;;;14.90;9.90;;;;;;;-4.85;85.53;97701.73;109734;1251;66673;-61
2022/02/25 01:47:12;;;;;;;21.00;12.20;;;;;;;-4.78;84.61;97696.25;109685;1251;68604;-64
2022/02/25 01:49:43;;;;;;;22.40;14.50;;;;;;;-4.71;84.69;97692.98;109742;1251;59750;-64
2022/02/25 01:52:15;;;;;;;18.00;11.50;;;;;;;-4.73;84.94;97687.38;109711;1251;59677;-62
2022/02/25 01:54:46;;;;;;;31.20;17.70;;;;;;;-4.81;85.50;97686.08;109802;1250;71529;-62
2022/02/25 01:57:16;;;;;;;30.00;16.10;;;;;;;-4.89;86.20;97691.23;110017;1250;67521;-65
2022/02/25 01:59:47;;;;;;;28.80;16.00;;;;;;;-4.98;86.23;97692.49;109710;1250;68488;-64
2022/02/25 02:02:18;;;;;;;19.70;11.30;;;;;;;-5.04;87.70;97694.90;109764;1251;59719;-65
2022/02/25 02:04:48;;;;;;;20.80;11.00;;;;;;;-4.97;86.53;97692.31;109851;1251;59722;-64
2022/02/25 02:07:19;;;;;;;18.80;10.70;;;;;;;-4.86;85.87;97689.52;109507;1251;71527;-63
2022/02/25 02:09:50;;;;;;;16.70;10.50;;;;;;;-4.77;85.82;97681.98;109826;1251;67929;-62
2022/02/25 02:12:21;;;;;;;18.30;10.70;;;;;;;-4.71;85.77;97679.38;109749;1251;69246;-63
2022/02/25 02:14:51;;;;;;;18.40;11.40;;;;;;;-4.75;85.60;97679.90;109862;1250;59757;-61
2022/02/25 02:17:22;;;;;;;15.70;10.00;;;;;;;-4.83;85.14;97674.36;109997;1250;59772;-63
2022/02/25 02:19:51;;;;;;;24.60;12.90;;;;;;;-4.94;84.90;97670.53;109933;1250;71566;-62
2022/02/25 02:22:26;;;;;;;19.30;13.10;;;;;;;-5.05;85.03;97670.10;109915;1251;67792;-62
2022/02/25 02:24:57;;;;;;;23.50;12.50;;;;;;;-5.15;85.13;97667.95;109929;1249;68764;-61
2022/02/25 02:28:17;;;;;;;13.50;9.40;;;;;;;-5.22;85.05;97666.30;109784;1251;59712;-64
2022/02/25 02:30:19;;;;;;;15.60;9.90;;;;;;;-5.30;84.84;97669.41;109782;1251;59741;-61
2022/02/25 02:32:49;;;;;;;14.30;9.40;;;;;;;-5.36;85.33;97667.58;109816;1250;71492;-61
2022/02/25 02:35:18;;;;;;;22.40;13.40;;;;;;;-5.38;85.52;97667.24;109711;1251;67700;-62
2022/02/25 02:37:49;;;;;;;29.00;16.60;;;;;;;-5.42;86.39;97672.52;110026;1250;69223;-62
2022/02/25 02:40:20;;;;;;;35.60;18.80;;;;;;;-5.60;84.92;97678.23;109795;1250;59759;-62
2022/02/25 02:42:51;;;;;;;24.10;14.30;;;;;;;-5.76;84.31;97675.92;109922;1250;59669;-63
2022/02/25 02:45:21;;;;;;;17.80;11.30;;;;;;;-5.82;84.60;97678.48;109000;1251;899127;-62
2022/02/25 02:47:51;;;;;;;28.30;16.50;;;;;;;-5.87;84.62;97679.36;109881;1251;67720;-63
2022/02/25 02:50:22;;;;;;;30.40;16.80;;;;;;;-5.95;85.52;97686.55;109573;1253;68589;-64
2022/02/25 02:52:52;;;;;;;21.10;12.70;;;;;;;-5.98;85.96;97692.48;109667;1251;59757;-64
2022/02/25 02:55:22;;;;;;;;;;;;;;;-5.99;85.80;97696.73;109687;1254;59741;-64
2022/02/25 02:57:53;;;;;;;23.80;13.30;;;;;;;-5.99;85.42;97696.07;109735;1251;71250;-63
2022/02/25 03:00:22;;;;;;;19.70;12.30;;;;;;;-6.01;86.97;97695.55;109861;1251;67917;-63
2022/02/25 03:02:53;;;;;;;22.70;13.80;;;;;;;-6.02;87.56;97694.54;109865;1251;68487;-65
2022/02/25 03:05:23;;;;;;;27.20;14.10;;;;;;;-6.03;87.88;97694.21;109835;1250;59684;-62
2022/02/25 03:07:54;;;;;;;30.70;15.10;;;;;;;-6.02;88.46;97692.84;109545;1254;59752;-61
2022/02/25 03:10:24;;;;;;;;;;;;;;;-6.01;88.66;97696.57;109802;1251;70776;-64
2022/02/25 03:12:56;;;;;;;24.40;13.00;;;;;;;-6.00;88.47;97694.55;109780;1251;68574;-62
2022/02/25 03:15:26;;;;;;;24.10;13.70;;;;;;;-6.01;88.25;97692.33;109582;1252;69210;-63
2022/02/25 03:17:56;;;;;;;;;;;;;;;-6.03;88.03;97696.07;109609;1251;59795;-62
2022/02/25 03:20:26;;;;;;;13.40;8.70;;;;;;;-6.05;87.75;97699.30;109762;1251;59700;-63
2022/02/25 03:22:55;;;;;;;24.30;14.10;;;;;;;-6.07;87.37;97703.02;109682;1253;71615;-63
2022/02/25 03:25:27;;;;;;;23.10;13.60;;;;;;;-6.10;87.78;97702.53;109734;1251;67724;-63
2022/02/25 03:27:58;;;;;;;19.60;11.80;;;;;;;-6.07;89.12;97697.95;109868;1251;69341;-63
2022/02/25 03:30:27;;;;;;;28.10;14.70;;;;;;;-6.02;89.27;97697.44;109776;1250;59693;-65
2022/02/25 03:32:57;;;;;;;28.20;14.00;;;;;;;-5.97;89.49;97693.67;109732;1251;59721;-61
2022/02/25 03:35:29;;;;;;;25.90;14.30;;;;;;;-5.92;89.59;97690.92;109515;1251;70859;-64
2022/02/25 03:37:59;;;;;;;29.30;15.40;;;;;;;-5.85;89.46;97690.38;109642;1253;68144;-63
2022/02/25 03:40:30;;;;;;;24.80;14.20;;;;;;;-5.82;89.33;97685.62;109656;1251;68678;-61
2022/02/25 03:43:02;;;;;;;18.20;12.70;;;;;;;-5.79;89.12;97679.48;109654;1251;59748;-62
2022/02/25 03:45:32;;;;;;;28.30;15.50;;;;;;;-5.77;88.83;97676.09;109762;1251;59638;-60
2022/02/25 03:48:04;;;;;;;23.30;13.80;;;;;;;-5.76;88.24;97674.05;109804;1251;71542;-61
2022/02/25 03:50:34;;;;;;;28.00;15.70;;;;;;;-5.72;87.06;97678.80;109756;1251;67888;-63
2022/02/25 03:53:03;;;;;;;25.40;14.10;;;;;;;-5.71;87.11;97672.16;109737;1250;69219;-64
2022/02/25 03:55:34;;;;;;;17.80;11.60;;;;;;;-5.67;86.81;97671.46;109778;1251;59697;-64
2022/02/25 03:58:04;;;;;;;19.40;10.70;;;;;;;-5.61;86.67;97669.08;109816;1250;59677;-66
2022/02/25 04:00:34;;;;;;;18.60;10.40;;;;;;;-5.59;86.44;97664.30;109827;1251;70757;-63
2022/02/25 04:03:04;;;;;;;20.60;12.70;;;;;;;-5.60;86.17;97658.34;109671;1251;68639;-62
2022/02/25 04:05:35;;;;;;;19.00;12.00;;;;;;;-5.62;85.97;97657.86;109531;1253;68611;-65
2022/02/25 04:08:05;;;;;;;19.30;11.90;;;;;;;-5.64;85.74;97659.06;109655;1251;59677;-64
2022/02/25 04:10:36;;;;;;;25.40;14.00;;;;;;;-5.64;85.70;97660.41;109781;1251;59699;-64
2022/02/25 04:13:06;;;;;;;19.10;11.00;;;;;;;-5.62;85.36;97659.73;109934;1250;71382;-61
2022/02/25 04:15:37;;;;;;;21.90;12.20;;;;;;;-5.64;85.21;97662.11;109681;1251;67073;-62
2022/02/25 04:18:07;;;;;;;21.00;12.60;;;;;;;-5.64;85.36;97661.95;109731;1249;69655;-61
2022/02/25 04:20:38;;;;;;;23.20;11.80;;;;;;;-5.64;85.50;97662.63;109619;1251;59723;-61
2022/02/25 04:23:08;;;;;;;;;;;;;;;-5.67;85.34;97662.30;109819;1250;59694;-62
2022/02/25 04:25:39;;;;;;;19.50;10.60;;;;;;;-5.71;85.12;97661.30;109626;1251;70713;-62
2022/02/25 04:28:08;;;;;;;21.80;13.70;;;;;;;-5.76;84.94;97658.27;109756;1251;67961;-62
2022/02/25 04:30:39;;;;;;;;;;;;;;;-5.80;84.89;97657.77;109744;1251;68849;-63
2022/02/25 04:33:09;;;;;;;14.60;8.90;;;;;;;-5.81;85.06;97652.17;109652;1251;59728;-63
2022/02/25 04:35:40;;;;;;;28.00;16.40;;;;;;;-5.85;85.25;97647.60;109792;1250;59706;-65
2022/02/25 04:38:10;;;;;;;18.50;11.90;;;;;;;-5.93;85.39;97649.70;109798;1250;71533;-63
2022/02/25 04:40:41;;;;;;;20.80;13.10;;;;;;;-5.98;85.42;97647.52;109781;1250;67822;-62
2022/02/25 04:43:11;;;;;;;18.20;11.00;;;;;;;-6.00;85.35;97647.70;109754;1251;68887;-65
2022/02/25 04:45:41;;;;;;;29.50;16.30;;;;;;;-6.02;85.55;97648.38;109710;1250;59765;-63
2022/02/25 04:48:11;;;;;;;18.20;12.30;;;;;;;-6.10;85.86;97654.34;109779;1250;59691;-64
2022/02/25 04:50:41;;;;;;;19.50;11.80;;;;;;;-6.17;85.64;97655.04;109537;1251;71136;-63
2022/02/25 04:53:10;;;;;;;18.20;10.40;;;;;;;-6.23;85.65;97658.45;109635;1250;67877;-64
2022/02/25 04:55:40;;;;;;;16.80;9.90;;;;;;;-6.27;85.60;97659.15;109798;1251;68546;-61
2022/02/25 04:58:09;;;;;;;27.00;14.60;;;;;;;-6.34;85.59;97667.30;109750;1250;59766;-61
2022/02/25 05:00:41;;;;;;;20.50;13.20;;;;;;;-6.41;85.57;97671.89;109789;1250;59656;-61
2022/02/25 05:03:11;;;;;;;26.30;15.90;;;;;;;-6.47;85.69;97672.58;109762;1250;70388;-62
2022/02/25 05:05:41;;;;;;;11.80;8.20;;;;;;;-6.52;85.85;97676.14;109826;1251;68654;-62
2022/02/25 05:08:12;;;;;;;14.10;9.00;;;;;;;-6.54;85.74;97678.86;109757;1251;69531;-61
2022/02/25 05:10:45;;;;;;;19.70;13.00;;;;;;;-6.56;85.67;97680.89;109733;1251;59708;-62
2022/02/25 05:13:16;;;;;;;20.70;13.20;;;;;;;-6.57;85.70;97681.73;109840;1249;59658;-64
2022/02/25 05:21:24;;;;;;;17.30;10.50;;;;;;;-6.49;85.84;97676.82;109759;1251;69443;-62
2022/02/25 05:23:53;;;;;;;22.50;13.90;;;;;;;-6.37;85.97;97682.73;109680;1251;59752;-62
2022/02/25 05:26:23;;;;;;;23.90;14.50;;;;;;;-6.33;87.26;97680.70;109814;1251;59842;-63
2022/02/25 05:28:52;;;;;;;26.10;16.10;;;;;;;-6.26;87.56;97684.09;109809;1251;72222;-63
2022/02/25 05:31:22;;;;;;;16.20;9.70;;;;;;;-6.24;87.12;97687.48;109721;1251;67838;-63
2022/02/25 05:33:53;;;;;;;19.70;12.40;;;;;;;-6.21;86.47;97692.71;109814;1251;68649;-63
2022/02/25 05:36:23;;;;;;;20.00;12.00;;;;;;;-6.20;86.02;97686.27;109818;1251;60063;-63
2022/02/25 05:38:53;;;;;;;29.40;17.00;;;;;;;-6.13;85.85;97680.16;109825;1251;59652;-62
2022/02/25 05:41:23;;;;;;;26.70;16.10;;;;;;;-6.10;85.87;97679.64;110040;1250;71556;-62
2022/02/25 05:43:52;;;;;;;28.40;18.70;;;;;;;-6.07;85.65;97676.39;109967;1249;68583;-62
2022/02/25 05:46:22;;;;;;;17.60;11.90;;;;;;;-6.03;85.48;97680.96;109593;1251;68594;-61
2022/02/25 05:48:53;;;;;;;18.60;10.60;;;;;;;-5.96;85.39;97679.59;109767;1250;59680;-59
2022/02/25 05:51:22;;;;;;;17.60;10.30;;;;;;;-5.84;85.23;97676.80;109830;1250;59695;-65
2022/02/25 05:53:54;;;;;;;17.20;12.00;;;;;;;-5.69;85.29;97674.36;109680;1251;71984;-62
2022/02/25 05:56:26;;;;;;;28.20;15.90;;;;;;;-5.49;85.46;97670.36;109775;1251;68441;-64
2022/02/25 05:58:55;;;;;;;15.40;11.10;;;;;;;-5.27;85.64;97674.14;109795;1251;69514;-62
2022/02/25 06:01:25;;;;;;;16.70;10.80;;;;;;;-5.03;84.97;97685.55;109815;1249;59710;-63
2022/02/25 06:03:54;;;;;;;15.60;11.30;;;;;;;-4.80;84.54;97680.46;109872;1251;59698;-62
2022/02/25 06:06:24;;;;;;;25.10;14.70;;;;;;;-4.66;83.76;97678.46;109687;1251;70796;-63
2022/02/25 06:08:54;;;;;;;22.70;13.90;;;;;;;-4.58;82.98;97678.25;109866;1250;68597;-62
2022/02/25 06:11:24;;;;;;;19.10;11.70;;;;;;;-4.49;83.04;97673.90;109864;1250;68643;-62
2022/02/25 06:13:53;;;;;;;23.70;12.10;;;;;;;-4.40;83.01;97671.95;109722;1251;59716;-62
2022/02/25 06:16:23;;;;;;;20.90;13.10;;;;;;;-4.33;83.09;97670.17;109910;1250;59661;-63
2022/02/25 06:18:52;;;;;;;15.80;10.90;;;;;;;-4.25;83.00;97671.48;109865;1251;70018;-61
2022/02/25 06:21:22;;;;;;;15.90;10.80;;;;;;;-4.14;83.06;97674.76;109747;1251;68739;-64
2022/02/25 06:23:52;;;;;;;25.10;16.30;;;;;;;-4.01;83.11;97678.38;109842;1251;69477;-62
2022/02/25 06:26:22;;;;;;;42.70;24.30;;;;;;;-3.88;82.70;97684.54;109871;1251;59792;-63
2022/02/25 06:28:53;;;;;;;75.60;47.00;;;;;;;-3.78;82.08;97686.46;109844;1250;59823;-63
2022/02/25 06:31:23;;;;;;;77.40;46.60;;;;;;;-3.70;81.55;97693.19;109758;1250;71653;-63
2022/02/25 06:33:53;;;;;;;55.40;36.10;;;;;;;-3.37;80.79;97690.89;110034;1249;67823;-65
2022/02/25 06:36:22;;;;;;;49.70;32.10;;;;;;;-2.94;80.75;97688.26;109702;1251;69442;-64
2022/02/25 06:38:51;;;;;;;58.00;35.10;;;;;;;-2.36;79.78;97685.46;109769;1251;59778;-66
2022/02/25 06:41:23;;;;;;;49.80;32.00;;;;;;;-1.87;75.03;97681.68;109753;1250;59751;-64
2022/02/25 06:43:56;;;;;;;49.80;32.00;;;;;;;-1.35;75.81;97681.48;109928;1250;71550;-62
2022/02/25 06:46:38;;;;;;;44.00;30.90;;;;;;;-0.81;75.19;97683.04;109693;1251;70140;-66
2022/02/25 06:49:11;;;;;;;38.30;24.70;;;;;;;-0.45;72.17;97686.62;109975;1250;68725;-64
2022/02/25 06:51:41;;;;;;;41.20;27.50;;;;;;;-0.10;71.11;97682.67;109799;1250;59751;-63
2022/02/25 06:54:10;;;;;;;33.90;23.50;;;;;;;0.48;73.75;97682.80;109703;1251;59760;-64
2022/02/25 06:56:39;;;;;;;35.10;24.50;;;;;;;1.05;73.73;97679.25;109751;1250;71761;-65
2022/02/25 06:59:12;;;;;;;27.40;18.50;;;;;;;1.50;72.54;97681.61;109899;1250;68051;-64
2022/02/25 07:01:41;;;;;;;29.90;17.90;;;;;;;1.82;68.41;97678.83;109722;1251;69485;-64
2022/02/25 07:04:14;;;;;;;20.40;14.20;;;;;;;2.14;68.68;97680.16;109826;1251;59743;-61
2022/02/25 07:06:43;;;;;;;20.00;13.70;;;;;;;2.54;71.97;97669.80;109711;1251;59653;-63
2022/02/25 07:09:15;;;;;;;20.20;14.60;;;;;;;3.03;68.70;97667.26;109891;1250;71602;-64
2022/02/25 07:11:44;;;;;;;20.20;14.60;;;;;;;3.45;67.65;97666.14;109844;1251;68882;-68
2022/02/25 07:14:17;;;;;;;18.20;13.60;;;;;;;3.78;63.87;97658.55;109812;1249;68659;-65
2022/02/25 07:16:46;;;;;;;30.00;21.70;;;;;;;4.31;62.05;97654.59;109864;1250;60089;-66
2022/02/25 07:19:17;;;;;;;33.40;20.80;;;;;;;4.87;62.00;97645.51;109680;1251;59721;-65
2022/02/25 07:21:46;;;;;;;38.10;22.50;;;;;;;5.52;59.90;97646.58;109836;1250;71572;-65
2022/02/25 07:24:18;;;;;;;39.70;22.90;;;;;;;5.99;58.55;97643.23;109708;1250;68658;-64
2022/02/25 07:26:48;;;;;;;41.50;23.90;;;;;;;6.33;57.94;97646.36;109861;1251;70106;-65
2022/02/25 07:29:19;;;;;;;42.60;25.80;;;;;;;6.64;56.49;97661.51;109645;1251;59711;-63
2022/02/25 07:32:00;;;;;;;38.50;21.70;;;;;;;6.95;57.39;97667.28;109829;1251;59765;-65
2022/02/25 07:34:35;;;;;;;27.60;16.70;;;;;;;7.42;58.57;97666.11;109721;1250;71553;-67
2022/02/25 07:37:10;;;;;;;33.50;18.90;;;;;;;7.95;57.71;97660.11;109825;1250;67899;-63
2022/02/25 07:39:50;;;;;;;23.00;14.30;;;;;;;8.50;55.42;97664.00;109828;1251;69118;-65
2022/02/25 07:42:28;;;;;;;14.20;9.20;;;;;;;9.01;55.33;97671.48;109762;1250;59745;-64
2022/02/25 07:44:57;;;;;;;;;;;;;;;9.39;53.90;97673.94;109846;1250;59645;-64
2022/02/25 07:47:27;;;;;;;12.70;8.30;;;;;;;9.36;44.89;97670.45;109773;1250;71571;-65
2022/02/25 07:49:59;;;;;;;10.90;8.40;;;;;;;9.62;45.16;97673.02;109773;1251;68655;-64
2022/02/25 07:52:32;;;;;;;11.60;8.90;;;;;;;9.85;48.23;97670.98;109733;1250;68656;-66
2022/02/25 07:55:08;;;;;;;20.40;16.60;;;;;;;9.98;47.46;97669.42;110027;1250;59745;-65
2022/02/25 07:57:43;;;;;;;18.00;14.60;;;;;;;10.19;45.83;97666.85;109823;1249;59667;-65
2022/02/25 08:00:34;;;;;;;13.00;11.40;;;;;;;10.60;45.01;97664.52;109687;1251;72641;-62
2022/02/25 08:03:04;;;;;;;15.00;11.70;;;;;;;10.97;41.69;97660.73;109927;1250;68590;-66
2022/02/25 08:05:37;;;;;;;;;;;;;;;11.24;44.15;97659.68;109845;1250;69466;-62
2022/02/25 08:08:13;;;;;;;14.00;10.70;;;;;;;11.63;41.74;97652.73;109581;1251;59771;-64
2022/02/25 08:10:55;;;;;;;15.10;12.20;;;;;;;12.06;39.06;97646.73;109808;1250;59699;-63
2022/02/25 08:13:37;;;;;;;17.70;13.20;;;;;;;12.36;39.25;97645.39;109939;1250;71505;-64
2022/02/25 08:16:18;;;;;;;16.70;11.70;;;;;;;12.71;38.50;97652.77;109901;1250;67764;-62
2022/02/25 08:18:54;;;;;;;13.50;9.10;;;;;;;12.94;36.66;97648.42;109579;1250;69427;-66
2022/02/25 08:21:41;;;;;;;10.30;8.80;;;;;;;13.28;36.88;97638.56;109822;1250;59756;-65
2022/02/25 08:24:26;;;;;;;11.30;8.60;;;;;;;13.51;38.97;97633.01;109792;1250;59637;-65
2022/02/25 08:26:59;;;;;;;12.70;9.10;;;;;;;13.85;37.67;97629.02;109607;1250;71626;-64
2022/02/25 08:29:32;;;;;;;11.30;9.20;;;;;;;14.17;34.65;97621.55;109683;1251;67838;-64
2022/02/25 08:32:13;;;;;;;14.40;10.20;;;;;;;13.90;32.98;97621.74;109960;1250;68634;-65
2022/02/25 08:34:56;;;;;;;13.60;10.50;;;;;;;14.02;34.98;97621.42;109745;1250;59694;-64
2022/02/25 08:37:50;;;;;;;12.10;9.30;;;;;;;13.87;33.43;97619.38;109942;1250;59635;-63
2022/02/25 08:40:36;;;;;;;12.50;9.40;;;;;;;14.43;34.42;97623.46;109817;1249;70613;-65
2022/02/25 08:43:18;;;;;;;13.40;9.20;;;;;;;12.82;32.75;97624.42;109927;1250;67642;-66
2022/02/25 08:46:18;;;;;;;11.20;9.10;;;;;;;11.55;34.55;97627.80;109929;1250;68830;-64
2022/02/25 08:48:56;;;;;;;9.30;7.40;;;;;;;11.25;36.29;97629.46;109796;1250;59751;-64
2022/02/25 08:51:42;;;;;;;10.30;7.80;;;;;;;12.48;36.34;97614.39;109772;1250;59686;-63
2022/02/25 08:54:23;;;;;;;12.60;8.60;;;;;;;11.91;34.16;97612.86;110033;1249;71895;-65
2022/02/25 08:56:58;;;;;;;;;;;;;;;11.28;35.23;97623.66;109781;1250;68100;-64
2022/02/25 08:59:39;;;;;;;9.50;7.50;;;;;;;12.44;34.16;97621.48;110034;1250;68609;-67
2022/02/25 09:02:22;;;;;;;10.10;7.00;;;;;;;13.23;35.43;97621.78;109889;1250;59715;-65
2022/02/25 09:05:01;;;;;;;10.50;8.90;;;;;;;13.81;31.98;97616.17;109880;1250;59719;-63
2022/02/25 09:07:37;;;;;;;9.50;7.10;;;;;;;14.50;31.28;97615.45;109724;1251;70647;-62
2022/02/25 09:10:08;;;;;;;;;;;;;;;15.38;30.27;97616.77;109936;1250;68094;-61
2022/02/25 09:12:46;;;;;;;8.90;7.60;;;;;;;15.57;29.28;97604.86;109812;1250;69333;-62
2022/02/25 09:15:27;;;;;;;12.20;8.20;;;;;;;15.23;27.92;97596.42;109847;1250;59798;-63
2022/02/25 09:18:04;;;;;;;9.80;8.00;;;;;;;15.28;29.64;97593.39;109968;1250;59686;-63
2022/02/25 09:20:38;;;;;;;8.30;7.50;;;;;;;15.39;27.92;97587.02;109736;1250;70877;-64
2022/02/25 09:23:08;;;;;;;8.80;7.10;;;;;;;15.74;29.76;97590.01;109840;1250;67946;-63
2022/02/25 09:25:42;;;;;;;8.20;6.20;;;;;;;16.06;29.02;97583.58;109809;1249;68463;-66
2022/02/25 09:28:16;;;;;;;8.80;7.70;;;;;;;16.79;28.42;97582.52;109807;1250;59602;-64
2022/02/25 09:30:57;;;;;;;11.20;8.50;;;;;;;17.45;28.28;97584.73;109777;1251;59704;-61
2022/02/25 09:33:35;;;;;;;12.00;8.60;;;;;;;17.90;26.92;97576.05;109905;1249;71506;-61
2022/02/25 09:36:12;;;;;;;11.20;8.90;;;;;;;17.20;26.19;97573.97;109809;1250;67659;-65
2022/02/25 09:38:54;;;;;;;10.30;8.40;;;;;;;16.22;27.42;97573.09;109728;1250;69012;-64
2022/02/25 09:41:38;;;;;;;11.00;9.30;;;;;;;17.44;27.61;97575.02;109809;1250;59728;-63
2022/02/25 09:44:14;;;;;;;11.90;9.50;;;;;;;16.12;27.26;97572.95;110264;1249;59777;-62
2022/02/25 09:46:49;;;;;;;9.10;7.80;;;;;;;15.12;28.10;97567.64;110346;1250;70962;-62
2022/02/25 09:49:26;;;;;;;11.60;8.60;;;;;;;16.18;27.59;97559.75;109956;1249;68472;-62
2022/02/25 09:52:03;;;;;;;8.40;6.70;;;;;;;17.22;28.24;97552.54;109764;1250;68622;-62
2022/02/25 09:54:39;;;;;;;10.30;7.40;;;;;;;18.28;27.47;97551.12;109936;1249;59678;-65
2022/02/25 09:57:24;;;;;;;14.10;10.20;;;;;;;16.76;25.96;97549.98;109966;1250;59746;-65
2022/02/25 10:00:10;;;;;;;10.80;8.50;;;;;;;16.74;27.12;97554.29;110052;1249;71590;-68
2022/02/25 10:02:58;;;;;;;10.10;6.70;;;;;;;17.70;26.70;97552.86;109896;1250;68466;-63
2022/02/25 10:05:35;;;;;;;10.40;7.00;;;;;;;18.80;26.92;97556.98;109747;1250;68524;-63
2022/02/25 10:08:17;;;;;;;11.10;8.40;;;;;;;19.61;25.54;97555.58;109787;1250;59765;-65
2022/02/25 10:10:56;;;;;;;11.30;8.40;;;;;;;19.28;24.35;97558.33;109777;1250;59710;-62
2022/02/25 10:13:32;;;;;;;9.90;7.10;;;;;;;19.09;23.15;97561.30;109713;1250;71562;-66
2022/02/25 10:16:33;;;;;;;8.00;6.40;;;;;;;19.89;24.50;97551.26;109742;1250;68650;-62
2022/02/25 10:19:27;;;;;;;7.90;6.50;;;;;;;20.29;23.99;97547.13;109794;1250;68650;-63
2022/02/25 10:22:20;;;;;;;9.10;6.80;;;;;;;20.26;22.09;97541.20;109813;1251;59732;-62
2022/02/25 10:25:14;;;;;;;9.20;6.30;;;;;;;16.64;24.48;97534.28;109875;1248;59629;-61
2022/02/25 10:27:55;;;;;;;11.20;7.70;;;;;;;18.70;23.32;97535.70;109778;1250;71113;-65
2022/02/25 10:30:38;;;;;;;11.00;7.10;;;;;;;16.21;24.67;97539.02;109777;1250;68054;-63
2022/02/25 10:33:15;;;;;;;10.90;7.50;;;;;;;14.99;26.88;97543.30;109773;1250;68661;-62
2022/02/25 10:35:48;;;;;;;9.20;7.70;;;;;;;14.29;27.17;97542.15;109880;1250;59996;-66
2022/02/25 10:38:26;;;;;;;8.80;6.60;;;;;;;15.03;27.52;97534.67;109871;1250;59643;-63
2022/02/25 10:40:59;;;;;;;9.30;6.30;;;;;;;16.95;26.39;97529.42;109822;1250;71556;-63
2022/02/25 10:43:29;;;;;;;8.90;7.80;;;;;;;18.11;24.88;97524.09;110261;1250;68523;-69
2022/02/25 10:46:11;;;;;;;9.90;7.80;;;;;;;18.34;23.67;97519.21;109862;1250;69540;-63
2022/02/25 10:48:47;;;;;;;10.90;8.30;;;;;;;16.67;24.74;97514.94;109807;1250;59755;-63
2022/02/25 10:51:23;;;;;;;10.80;7.00;;;;;;;15.07;27.02;97521.36;109786;1250;59687;-62
2022/02/25 10:54:05;;;;;;;;;;;;;;;16.93;25.61;97517.80;109753;1250;71051;-61
2022/02/25 10:56:48;;;;;;;10.20;6.90;;;;;;;18.11;25.49;97516.08;109742;1251;67979;-61
2022/02/25 10:59:25;;;;;;;14.40;10.70;;;;;;;19.26;24.62;97511.39;109658;1250;69886;-65
2022/02/25 11:02:02;;;;;;;10.80;8.60;;;;;;;18.75;23.65;97509.76;109810;1250;59734;-64
2022/02/25 11:05:05;;;;;;;11.50;9.90;;;;;;;19.02;22.88;97504.56;109813;1250;59689;-65
2022/02/25 11:07:58;;;;;;;10.30;8.40;;;;;;;19.72;23.37;97501.18;109843;1249;71612;-63
2022/02/25 11:10:39;;;;;;;11.80;10.50;;;;;;;20.86;22.29;97500.20;109620;1250;67564;-63
2022/02/25 11:13:19;;;;;;;9.60;7.90;;;;;;;21.03;20.99;97494.84;109868;1250;68651;-63
2022/02/25 11:15:54;;;;;;;9.30;7.90;;;;;;;21.93;21.89;97487.23;109674;1250;59754;-62
2022/02/25 11:18:43;;;;;;;12.40;9.70;;;;;;;21.94;19.59;97484.72;109667;1250;59729;-61
2022/02/25 11:21:22;;;;;;;16.20;13.30;;;;;;;21.33;19.83;97479.73;109855;1248;70760;-62
2022/02/25 11:24:02;;;;;;;15.00;10.80;;;;;;;19.02;21.85;97471.75;109758;1250;68479;-62
2022/02/25 11:26:33;;;;;;;15.70;11.40;;;;;;;20.20;21.22;97468.59;109635;1250;68631;-63
2022/02/25 11:29:12;;;;;;;16.50;13.00;;;;;;;19.45;21.53;97471.56;109873;1250;59675;-62
2022/02/25 11:31:52;;;;;;;16.50;12.30;;;;;;;16.77;24.13;97470.05;109660;1250;59699;-62
2022/02/25 11:34:29;;;;;;;14.10;9.60;;;;;;;17.93;23.73;97467.85;109794;1250;71171;-60
2022/02/25 11:37:03;;;;;;;13.40;9.80;;;;;;;19.75;22.71;97465.45;109630;1250;67812;-62
2022/02/25 11:39:44;;;;;;;10.70;8.40;;;;;;;21.52;21.54;97465.14;109907;1250;69438;-63
2022/02/25 11:42:28;;;;;;;10.30;7.60;;;;;;;23.00;19.83;97459.65;109760;1250;59845;-63
2022/02/25 11:45:24;;;;;;;11.90;8.50;;;;;;;23.87;18.18;97455.94;109969;1250;59707;-61
2022/02/25 11:47:58;;;;;;;8.80;7.90;;;;;;;24.78;17.85;97457.39;109784;1250;70756;-62
2022/02/25 11:50:48;;;;;;;9.90;6.90;;;;;;;25.51;16.94;97458.23;109808;1250;68188;-65
2022/02/25 11:53:30;;;;;;;7.20;5.40;;;;;;;25.71;15.86;97461.84;109680;1249;69429;-63